createdAt,value
2019-02-16T00:00:55.454Z,102497.09
2019-02-16T00:03:27.215Z,102487.28
2019-02-16T00:05:58.866Z,102482.00
2019-02-16T00:08:30.540Z,102480.25
2019-02-16T00:11:02.490Z,102479.39
2019-02-16T00:13:34.257Z,102478.45
2019-02-16T00:16:05.920Z,102486.92
2019-02-16T00:18:37.529Z,102481.32
2019-02-16T00:21:09.128Z,102481.80
2019-02-16T00:23:40.804Z,102488.45
2019-02-16T00:26:12.393Z,102480.53
2019-02-16T00:28:44.003Z,102485.75
2019-02-16T00:31:15.607Z,102496.41
2019-02-16T00:33:47.221Z,102491.99
2019-02-16T00:36:19.493Z,102482.74
2019-02-16T00:38:51.521Z,102487.59
2019-02-16T00:41:23.185Z,102489.73
2019-02-16T00:43:54.831Z,102476.50
2019-02-16T00:46:26.418Z,102476.50
2019-02-16T00:48:58.092Z,102476.05
2019-02-16T00:51:29.752Z,102481.75
2019-02-16T00:54:01.679Z,102471.14
2019-02-16T00:56:33.697Z,102469.43
2019-02-16T00:59:05.660Z,102477.37
2019-02-16T01:01:37.269Z,102472.13
2019-02-16T01:04:08.891Z,102468.63
2019-02-16T01:06:40.557Z,102462.03
2019-02-16T01:09:12.179Z,102463.81
2019-02-16T01:11:43.852Z,102464.24
2019-02-16T01:14:15.466Z,102461.19
2019-02-16T01:16:47.070Z,102464.73
2019-02-16T01:19:18.771Z,102461.23
2019-02-16T01:21:50.461Z,102458.13
2019-02-16T01:24:22.067Z,102452.81
2019-02-16T01:26:53.657Z,102443.06
2019-02-16T01:29:25.279Z,102441.25
2019-02-16T01:31:56.945Z,102442.61
2019-02-16T01:34:28.530Z,102439.09
2019-02-16T01:37:00.268Z,102432.89
2019-02-16T01:39:31.884Z,102436.38
2019-02-16T01:42:03.713Z,102433.78
2019-02-16T01:44:35.696Z,102429.39
2019-02-16T01:47:07.294Z,102431.19
2019-02-16T01:49:38.978Z,102422.34
2019-02-16T01:52:10.754Z,102422.30
2019-02-16T01:54:42.437Z,102416.58
2019-02-16T01:57:14.109Z,102407.75
2019-02-16T01:59:45.877Z,102405.09
2019-02-16T02:02:17.547Z,102409.09
2019-02-16T02:04:49.158Z,102402.42
2019-02-16T02:07:20.815Z,102399.81
2019-02-16T02:09:52.494Z,102396.70
2019-02-16T02:12:25.177Z,102394.06
2019-02-16T02:14:56.853Z,102396.32
2019-02-16T02:17:28.509Z,102387.52
2019-02-16T02:20:00.358Z,102387.08
2019-02-16T02:22:32.072Z,102385.36
2019-02-16T02:25:03.774Z,102383.13
2019-02-16T02:27:35.692Z,102388.78
2019-02-16T02:30:08.194Z,102382.22
2019-02-16T02:32:39.873Z,102381.38
2019-02-16T02:35:11.507Z,102380.45
2019-02-16T02:37:43.242Z,102375.61
2019-02-16T02:40:14.838Z,102382.66
2019-02-16T02:42:46.445Z,102373.34
2019-02-16T02:45:18.065Z,102369.00
2019-02-16T02:47:49.677Z,102372.08
2019-02-16T02:50:21.351Z,102360.55
2019-02-16T02:52:52.971Z,102356.49
2019-02-16T02:55:24.645Z,102358.75
2019-02-16T02:57:56.252Z,102362.82
2019-02-16T03:00:28.779Z,102350.44
2019-02-16T03:03:00.452Z,102349.16
2019-02-16T03:05:32.339Z,102349.52
2019-02-16T03:08:04.007Z,102351.29
2019-02-16T03:10:35.803Z,102346.92
2019-02-16T03:13:07.483Z,102351.80
2019-02-16T03:15:39.188Z,102348.34
2019-02-16T03:18:10.866Z,102339.55
2019-02-16T03:20:42.527Z,102346.55
2019-02-16T03:23:23.378Z,102345.67
2019-02-16T03:26:10.414Z,102344.37
2019-02-16T03:29:04.011Z,102349.20
2019-02-16T03:32:12.572Z,102348.27
2019-02-16T03:35:27.966Z,102341.73
2019-02-16T03:38:41.723Z,102340.00
2019-02-16T03:41:15.713Z,102339.54
2019-02-16T03:43:47.394Z,102345.30
2019-02-16T03:46:19.001Z,102345.20
2019-02-16T03:48:50.611Z,102340.39
2019-02-16T03:51:22.226Z,102341.73
2019-02-16T03:53:53.810Z,102343.47
2019-02-16T03:56:25.489Z,102335.53
2019-02-16T03:58:57.093Z,102335.98
2019-02-16T04:01:28.653Z,102332.07
2019-02-16T04:04:00.257Z,102341.30
2019-02-16T04:06:31.909Z,102334.71
2019-02-16T04:09:05.469Z,102334.72
2019-02-16T04:11:37.197Z,102334.70
2019-02-16T04:14:08.777Z,102337.30
2019-02-16T04:16:40.372Z,102329.79
2019-02-16T04:19:11.977Z,102324.48
2019-02-16T04:21:43.582Z,102324.89
2019-02-16T04:24:15.286Z,102324.86
2019-02-16T04:26:46.894Z,102317.38
2019-02-16T04:29:18.508Z,102317.77
2019-02-16T04:31:50.185Z,102312.88
2019-02-16T04:34:21.791Z,102312.00
2019-02-16T04:36:53.390Z,102308.89
2019-02-16T04:39:25.084Z,102306.76
2019-02-16T04:41:56.660Z,102307.72
2019-02-16T04:44:28.271Z,102310.76
2019-02-16T04:46:59.873Z,102312.52
2019-02-16T04:49:31.881Z,102309.83
2019-02-16T04:52:03.750Z,102306.30
2019-02-16T04:54:35.675Z,102290.78
2019-02-16T04:57:07.279Z,102294.72
2019-02-16T04:59:38.871Z,102288.59
2019-02-16T05:02:10.599Z,102288.20
2019-02-16T05:04:42.290Z,102289.97
2019-02-16T05:07:13.899Z,102283.84
2019-02-16T05:09:45.494Z,102284.68
2019-02-16T05:12:17.273Z,102280.25
2019-02-16T05:14:48.894Z,102279.80
2019-02-16T05:17:20.558Z,102276.28
2019-02-16T05:19:53.109Z,102278.03
2019-02-16T05:22:24.719Z,102278.48
2019-02-16T05:24:56.401Z,102277.21
2019-02-16T05:27:27.992Z,102278.11
2019-02-16T05:29:59.617Z,102274.20
2019-02-16T05:32:31.432Z,102267.16
2019-02-16T05:35:03.044Z,102277.34
2019-02-16T05:37:34.822Z,102274.23
2019-02-16T05:40:07.540Z,102268.98
2019-02-16T05:42:39.156Z,102268.52
2019-02-16T05:45:10.996Z,102265.92
2019-02-16T05:47:42.683Z,102262.80
2019-02-16T05:50:14.295Z,102265.02
2019-02-16T05:52:54.232Z,102264.13
2019-02-16T05:55:19.279Z,102270.73
2019-02-16T05:57:51.011Z,102272.92
2019-02-16T06:00:25.795Z,102280.42
2019-02-16T06:02:57.336Z,102280.87
2019-02-16T06:05:29.062Z,102280.45
2019-02-16T06:08:00.666Z,102279.12
2019-02-16T06:10:32.609Z,102277.36
2019-02-16T06:13:04.231Z,102277.83
2019-02-16T06:15:35.943Z,102280.48
2019-02-16T06:18:07.557Z,102276.90
2019-02-16T06:20:39.175Z,102278.24
2019-02-16T06:23:10.894Z,102272.52
2019-02-16T06:25:42.589Z,102278.28
2019-02-16T06:28:14.218Z,102275.63
2019-02-16T06:30:45.872Z,102278.30
2019-02-16T06:33:17.569Z,102281.84
2019-02-16T06:35:51.964Z,102281.84
2019-02-16T06:38:23.575Z,102273.87
2019-02-16T06:40:55.225Z,102281.80
2019-02-16T06:43:26.840Z,102278.70
2019-02-16T06:45:58.463Z,102274.70
2019-02-16T06:48:30.120Z,102277.36
2019-02-16T06:51:01.972Z,102277.34
2019-02-16T06:53:33.805Z,102278.65
2019-02-16T06:56:24.603Z,102277.77
2019-02-16T06:58:56.273Z,102283.97
2019-02-16T07:01:27.871Z,102283.09
2019-02-16T07:04:00.620Z,102287.03
2019-02-16T07:06:32.586Z,102283.48
2019-02-16T07:09:05.705Z,102288.83
2019-02-16T07:11:37.391Z,102287.95
2019-02-16T07:14:09.028Z,102285.71
2019-02-16T07:16:49.496Z,102289.68
2019-02-16T07:19:40.075Z,102275.09
2019-02-16T07:22:11.704Z,102283.42
2019-02-16T07:24:43.361Z,102276.75
2019-02-16T07:27:14.976Z,102274.52
2019-02-16T07:29:46.659Z,102271.48
2019-02-16T07:32:18.365Z,102272.75
2019-02-16T07:34:49.955Z,102272.73
2019-02-16T07:37:21.570Z,102267.45
2019-02-16T07:39:53.173Z,102261.14
2019-02-16T07:42:25.138Z,102250.92
2019-02-16T07:45:15.649Z,102257.50
2019-02-16T07:47:52.589Z,102252.18
2019-02-16T07:50:46.092Z,102249.89
2019-02-16T07:53:48.529Z,102251.58
2019-02-16T07:56:30.167Z,102250.58
2019-02-16T07:59:20.602Z,102246.38
2019-02-16T08:02:23.115Z,102242.73
2019-02-16T08:05:15.589Z,102245.66
2019-02-16T08:07:59.814Z,102244.56
2019-02-16T08:10:53.181Z,102242.16
2019-02-16T08:13:45.276Z,102230.07
2019-02-16T08:16:41.882Z,102232.88
2019-02-16T08:19:27.845Z,102232.72
2019-02-16T08:22:07.664Z,102235.55
2019-02-16T08:25:04.634Z,102237.50
2019-02-16T08:27:56.363Z,102232.47
2019-02-16T08:30:42.262Z,102233.09
2019-02-16T08:33:34.245Z,102232.00
2019-02-16T08:36:23.388Z,102225.56
2019-02-16T08:39:12.438Z,102230.52
2019-02-16T08:42:01.594Z,102226.78
2019-02-16T08:44:50.730Z,102218.62
2019-02-16T08:47:37.182Z,102218.56
2019-02-16T08:50:30.534Z,102226.38
2019-02-16T08:53:16.866Z,102223.32
2019-02-16T08:56:22.521Z,102219.85
2019-02-16T08:59:11.726Z,102215.00
2019-02-16T09:02:00.566Z,102211.77
2019-02-16T09:04:49.854Z,102211.96
2019-02-16T09:07:40.384Z,102211.39
2019-02-16T09:10:29.380Z,102200.27
2019-02-16T09:13:13.331Z,102208.20
2019-02-16T09:16:07.590Z,102204.03
2019-02-16T09:18:48.847Z,102210.69
2019-02-16T09:21:51.299Z,102205.70
2019-02-16T09:24:57.076Z,102202.02
2019-02-16T09:27:38.707Z,102209.08
2019-02-16T09:30:24.579Z,102202.72
2019-02-16T09:33:12.478Z,102209.56
2019-02-16T09:36:04.473Z,102198.58
2019-02-16T09:38:53.470Z,102199.27
2019-02-16T09:41:42.746Z,102198.40
2019-02-16T09:44:23.347Z,102197.50
2019-02-16T09:47:32.135Z,102188.28
2019-02-16T09:50:12.723Z,102183.77
2019-02-16T09:53:03.306Z,102180.70
2019-02-16T09:55:52.480Z,102175.47
2019-02-16T09:58:41.504Z,102180.04
2019-02-16T10:01:50.390Z,102179.28
2019-02-16T10:04:37.381Z,102177.47
2019-02-16T10:07:26.575Z,102168.05
2019-02-16T10:10:22.930Z,102162.20
2019-02-16T10:13:08.987Z,102161.81
2019-02-16T10:16:02.656Z,102156.85
2019-02-16T10:18:53.229Z,102155.21
2019-02-16T10:21:46.571Z,102145.03
2019-02-16T10:24:27.737Z,102141.42
2019-02-16T10:27:33.162Z,102136.01
2019-02-16T10:30:22.183Z,102138.96
2019-02-16T10:33:12.789Z,102132.64
2019-02-16T10:35:52.762Z,102130.79
2019-02-16T10:38:43.370Z,102129.36
2019-02-16T10:41:32.627Z,102124.14
2019-02-16T10:44:38.016Z,102121.45
2019-02-16T10:47:31.303Z,102122.00
2019-02-16T10:50:14.400Z,102114.64
2019-02-16T10:53:04.919Z,102103.11
2019-02-16T10:55:50.046Z,102105.11
2019-02-16T10:58:46.560Z,102101.14
2019-02-16T11:01:35.700Z,102098.05
2019-02-16T11:04:38.138Z,102089.90
2019-02-16T11:07:10.431Z,102088.53
2019-02-16T11:09:47.344Z,102093.56
2019-02-16T11:12:40.759Z,102085.15
2019-02-16T11:15:47.916Z,102082.27
2019-02-16T11:18:30.640Z,102083.14
2019-02-16T11:21:21.171Z,102071.02
2019-02-16T11:24:11.774Z,102071.02
2019-02-16T11:27:05.489Z,102073.73
2019-02-16T11:29:46.633Z,102071.23
2019-02-16T11:32:42.634Z,102071.23
2019-02-16T11:35:40.421Z,102066.11
2019-02-16T11:38:36.808Z,102059.05
2019-02-16T11:41:19.450Z,102064.76
2019-02-16T11:44:04.895Z,102062.92
2019-02-16T11:46:58.692Z,102059.25
2019-02-16T11:49:52.274Z,102051.61
2019-02-16T11:52:51.741Z,102051.03
2019-02-16T11:55:44.362Z,102047.25
2019-02-16T11:58:34.774Z,102045.70
2019-02-16T12:01:16.864Z,102047.94
2019-02-16T12:04:19.488Z,102041.84
2019-02-16T12:07:09.131Z,102039.58
2019-02-16T12:10:14.130Z,102034.76
2019-02-16T12:13:08.107Z,102037.18
2019-02-16T12:16:00.043Z,102030.49
2019-02-16T12:18:56.614Z,102032.09
2019-02-16T12:21:44.110Z,102026.02
2019-02-16T12:25:02.955Z,102022.52
2019-02-16T12:27:40.704Z,102017.30
2019-02-16T12:30:34.074Z,102010.91
2019-02-16T12:33:31.287Z,102001.09
2019-02-16T12:36:32.268Z,102001.83
2019-02-16T12:39:35.267Z,101995.41
2019-02-16T12:42:29.233Z,102002.23
2019-02-16T12:45:21.385Z,101996.11
2019-02-16T12:48:19.959Z,102000.55
2019-02-16T12:51:07.558Z,102008.63
2019-02-16T12:54:09.883Z,101997.00
2019-02-16T12:57:03.219Z,102000.56
2019-02-16T12:59:59.933Z,101989.64
2019-02-16T13:02:50.446Z,101990.83
2019-02-16T13:05:49.988Z,101985.67
2019-02-16T13:08:39.507Z,101985.67
2019-02-16T13:11:23.172Z,101976.70
2019-02-16T13:14:11.566Z,101968.36
2019-02-16T13:17:07.072Z,101972.09
2019-02-16T13:19:46.923Z,101971.02
2019-02-16T13:22:40.426Z,101968.53
2019-02-16T13:25:36.779Z,101966.80
2019-02-16T13:28:23.079Z,101957.62
2019-02-16T13:31:19.632Z,101955.21
2019-02-16T13:34:10.139Z,101958.47
2019-02-16T13:36:53.243Z,101950.12
2019-02-16T13:39:34.962Z,101947.42
2019-02-16T13:42:28.451Z,101948.91
2019-02-16T13:45:30.833Z,101945.19
2019-02-16T13:48:24.123Z,101948.44
2019-02-16T13:51:10.031Z,101942.14
2019-02-16T13:54:06.708Z,101937.01
2019-02-16T13:57:03.582Z,101935.69
2019-02-16T13:59:52.714Z,101927.19
2019-02-16T14:02:44.570Z,101928.33
2019-02-16T14:05:27.118Z,101930.28
2019-02-16T14:08:23.493Z,101924.27
2019-02-16T14:10:59.751Z,101918.97
2019-02-16T14:13:53.068Z,101917.23
2019-02-16T14:16:32.812Z,101906.06
2019-02-16T14:19:04.419Z,101901.18
2019-02-16T14:21:36.113Z,101899.45
2019-02-16T14:24:07.803Z,101898.82
2019-02-16T14:26:39.402Z,101898.85
2019-02-16T14:29:11.093Z,101890.51
2019-02-16T14:31:42.703Z,101899.61
2019-02-16T14:34:14.379Z,101887.89
2019-02-16T14:36:47.431Z,101881.59
2019-02-16T14:39:29.377Z,101874.73
2019-02-16T14:42:01.056Z,101878.63
2019-02-16T14:44:33.172Z,101869.22
2019-02-16T14:47:04.956Z,101870.80
2019-02-16T14:49:36.803Z,101868.48
2019-02-16T14:52:10.247Z,101857.28
2019-02-16T14:54:42.574Z,101846.42
2019-02-16T14:57:14.550Z,101851.23
2019-02-16T14:59:46.509Z,101853.19
2019-02-16T15:02:18.400Z,101848.53
2019-02-16T15:04:50.394Z,101845.69
2019-02-16T15:07:22.475Z,101850.03
2019-02-16T15:09:54.470Z,101848.17
2019-02-16T15:12:26.558Z,101843.71
2019-02-16T15:14:58.628Z,101841.38
2019-02-16T15:17:31.680Z,101838.36
2019-02-16T15:20:04.321Z,101835.78
2019-02-16T15:22:36.529Z,101828.03
2019-02-16T15:25:10.764Z,101833.39
2019-02-16T15:27:43.044Z,101824.36
2019-02-16T15:30:16.368Z,101824.84
2019-02-16T15:32:48.061Z,101821.59
2019-02-16T15:35:20.634Z,101827.70
2019-02-16T15:37:53.484Z,101824.90
2019-02-16T15:40:25.569Z,101822.44
2019-02-16T15:42:57.775Z,101828.25
2019-02-16T15:45:29.660Z,101824.13
2019-02-16T15:48:01.331Z,101836.67
2019-02-16T15:50:33.092Z,101838.96
2019-02-16T15:53:04.811Z,101838.88
2019-02-16T15:55:36.543Z,101829.87
2019-02-16T15:58:08.236Z,101815.56
2019-02-16T16:00:40.031Z,101800.30
2019-02-16T16:03:11.649Z,101796.66
2019-02-16T16:05:43.503Z,101792.09
2019-02-16T16:08:33.129Z,101799.77
2019-02-16T16:11:23.729Z,101801.20
2019-02-16T16:14:23.762Z,101807.91
2019-02-16T16:17:30.860Z,101812.88
2019-02-16T16:20:09.443Z,101808.41
2019-02-16T16:22:50.331Z,101806.59
2019-02-16T16:25:33.932Z,101805.54
2019-02-16T16:28:30.799Z,101804.49
2019-02-16T16:31:20.194Z,101808.83
2019-02-16T16:34:08.659Z,101805.71
2019-02-16T16:37:14.140Z,101806.95
2019-02-16T16:40:04.741Z,101801.24
2019-02-16T16:42:55.320Z,101800.94
2019-02-16T16:45:52.705Z,101803.88
2019-02-16T16:48:30.305Z,101803.73
2019-02-16T16:51:36.277Z,101806.34
2019-02-16T16:54:25.370Z,101811.62
2019-02-16T16:57:02.962Z,101813.45
2019-02-16T16:59:55.557Z,101808.02
2019-02-16T17:03:01.071Z,101828.74
2019-02-16T17:05:57.416Z,101833.44
2019-02-16T17:08:46.401Z,101825.87
2019-02-16T17:11:35.746Z,101825.56
2019-02-16T17:14:24.716Z,101819.91
2019-02-16T17:17:09.243Z,101821.86
2019-02-16T17:20:11.749Z,101818.72
2019-02-16T17:23:02.329Z,101819.18
2019-02-16T17:25:52.991Z,101815.85
2019-02-16T17:28:49.609Z,101821.22
2019-02-16T17:31:43.201Z,101817.10
2019-02-16T17:34:33.849Z,101814.89
2019-02-16T17:37:12.334Z,101813.22
2019-02-16T17:39:55.220Z,101816.65
2019-02-16T17:42:54.847Z,101814.26
2019-02-16T17:45:54.305Z,101813.05
2019-02-16T17:48:45.984Z,101809.29
2019-02-16T17:51:26.697Z,101804.23
2019-02-16T17:54:15.839Z,101802.59
2019-02-16T17:57:15.126Z,101806.23
2019-02-16T18:00:07.528Z,101805.52
2019-02-16T18:03:04.573Z,101807.27
2019-02-16T18:05:55.220Z,101807.98
2019-02-16T18:08:42.691Z,101812.48
2019-02-16T18:11:31.664Z,101810.30
2019-02-16T18:14:20.545Z,101807.45
2019-02-16T18:17:20.128Z,101802.72
2019-02-16T18:20:10.730Z,101803.58
2019-02-16T18:23:06.116Z,101802.59
2019-02-16T18:25:54.713Z,101805.31
2019-02-16T18:28:56.739Z,101811.23
2019-02-16T18:31:49.446Z,101812.08
2019-02-16T18:34:39.572Z,101812.48
2019-02-16T18:37:38.958Z,101814.03
2019-02-16T18:40:27.934Z,101809.22
2019-02-16T18:43:23.715Z,101821.73
2019-02-16T18:46:20.436Z,101816.67
2019-02-16T18:49:09.385Z,101821.87
2019-02-16T18:51:58.374Z,101816.23
2019-02-16T18:54:36.304Z,101819.27
2019-02-16T18:57:29.747Z,101817.66
2019-02-16T19:00:23.126Z,101815.06
2019-02-16T19:03:18.513Z,101816.67
2019-02-16T19:06:09.118Z,101815.86
2019-02-16T19:09:06.947Z,101814.73
2019-02-16T19:11:58.032Z,101814.13
2019-02-16T19:15:14.592Z,101819.07
2019-02-16T19:17:53.231Z,101815.95
2019-02-16T19:20:43.767Z,101817.61
2019-02-16T19:23:27.682Z,101820.00
2019-02-16T19:26:19.208Z,101815.18
2019-02-16T19:29:08.152Z,101812.23
2019-02-16T19:31:45.694Z,101812.87
2019-02-16T19:34:42.111Z,101809.05
2019-02-16T19:37:19.634Z,101807.19
2019-02-16T19:40:13.788Z,101811.20
2019-02-16T19:43:03.256Z,101816.73
2019-02-16T19:45:43.218Z,101820.27
2019-02-16T19:48:23.850Z,101814.72
2019-02-16T19:51:20.385Z,101814.11
2019-02-16T19:54:14.087Z,101809.06
2019-02-16T19:57:26.931Z,101804.77
2019-02-16T20:00:13.900Z,101808.70
2019-02-16T20:03:07.379Z,101808.40
2019-02-16T20:06:06.887Z,101810.10
2019-02-16T20:09:00.230Z,101808.56
2019-02-16T20:11:54.481Z,101811.89
2019-02-16T20:14:45.206Z,101814.61
2019-02-16T20:17:30.616Z,101805.80
2019-02-16T20:20:20.016Z,101803.82
2019-02-16T20:23:11.425Z,101803.73
2019-02-16T20:26:11.074Z,101798.09
2019-02-16T20:28:49.273Z,101798.41
2019-02-16T20:31:30.885Z,101796.16
2019-02-16T20:34:15.822Z,101795.42
2019-02-16T20:36:55.738Z,101799.98
2019-02-16T20:40:01.512Z,101799.72
2019-02-16T20:43:02.486Z,101805.22
2019-02-16T20:45:53.685Z,101805.02
2019-02-16T20:48:43.285Z,101811.66
2019-02-16T20:51:32.896Z,101813.14
2019-02-16T20:54:32.809Z,101812.52
2019-02-16T20:57:22.688Z,101809.33
2019-02-16T21:00:16.432Z,101810.34
2019-02-16T21:02:55.108Z,101816.91
2019-02-16T21:05:45.661Z,101817.13
2019-02-16T21:08:39.201Z,101813.81
2019-02-16T21:11:34.963Z,101814.05
2019-02-16T21:14:37.940Z,101816.80
2019-02-16T21:17:40.749Z,101818.95
2019-02-16T21:20:46.223Z,101817.66
2019-02-16T21:23:33.247Z,101818.44
2019-02-16T21:26:39.791Z,101823.41
2019-02-16T21:29:23.035Z,101830.77
2019-02-16T21:32:09.970Z,101820.41
2019-02-16T21:35:00.651Z,101820.40
2019-02-16T21:37:57.175Z,101816.98
2019-02-16T21:40:47.789Z,101817.53
2019-02-16T21:43:47.417Z,101823.38
2019-02-16T21:46:47.120Z,101822.26
2019-02-16T21:49:42.300Z,101824.66
2019-02-16T21:52:43.659Z,101824.97
2019-02-16T21:55:32.431Z,101823.63
2019-02-16T21:58:21.450Z,101818.84
2019-02-16T22:01:10.617Z,101826.98
2019-02-16T22:04:16.384Z,101828.38
2019-02-16T22:07:18.210Z,101827.97
2019-02-16T22:10:23.962Z,101827.17
2019-02-16T22:13:12.397Z,101829.13
2019-02-16T22:15:44.101Z,101831.59
2019-02-16T22:18:15.804Z,101827.44
2019-02-16T22:20:48.028Z,101830.20
2019-02-16T22:23:20.468Z,101830.71
2019-02-16T22:25:52.928Z,101829.44
2019-02-16T22:28:30.805Z,101825.58
2019-02-16T22:30:58.320Z,101823.33
2019-02-16T22:33:29.946Z,101818.91
2019-02-16T22:36:01.556Z,101831.42
2019-02-16T22:38:34.027Z,101818.78
2019-02-16T22:41:05.948Z,101824.48
2019-02-16T22:43:38.176Z,101828.27
2019-02-16T22:46:10.038Z,101831.78
2019-02-16T22:48:41.758Z,101831.99
2019-02-16T22:51:13.660Z,101833.62
2019-02-16T22:53:45.367Z,101828.61
2019-02-16T22:56:17.360Z,101828.04
2019-02-16T22:58:49.316Z,101825.47
2019-02-16T23:01:21.015Z,101823.16
2019-02-16T23:03:52.908Z,101830.55
2019-02-16T23:06:25.000Z,101826.30
2019-02-16T23:08:56.748Z,101827.40
2019-02-16T23:11:28.460Z,101822.31
2019-02-16T23:14:00.192Z,101827.64
2019-02-16T23:16:32.321Z,101825.89
2019-02-16T23:19:04.124Z,101825.72
2019-02-16T23:21:36.141Z,101824.92
2019-02-16T23:24:08.274Z,101825.90
2019-02-16T23:26:40.197Z,101817.48
2019-02-16T23:29:11.872Z,101819.23
2019-02-16T23:31:43.580Z,101822.75
2019-02-16T23:34:15.417Z,101811.65
2019-02-16T23:36:47.849Z,101821.23
2019-02-16T23:39:20.182Z,101816.89
2019-02-16T23:41:51.914Z,101823.40
2019-02-16T23:44:24.153Z,101819.08
2019-02-16T23:46:55.777Z,101816.17
2019-02-16T23:49:27.886Z,101808.52
2019-02-16T23:52:00.137Z,101808.09
2019-02-16T23:54:31.816Z,101811.81
2019-02-16T23:57:03.801Z,101807.22
2019-02-16T23:59:35.856Z,101812.95
